Time;durP1;ratioP1;P1;durP2;ratioP2;P2;SDS_P1;SDS_P2;PMS_P1;PMS_P2;Temp;Humidity;BMP_temperature;BMP_pressure;BME280_temperature;BME280_humidity;BME280_pressure;Samples;Min_cycle;Max_cycle;Signal;HPM_P1;HPM_P2
2023/05/05 00:01:09;;;;;;;7.05;4.70;;;;;;;10.60;70.79;96415.78;5088313;28;20117;-73
2023/05/05 00:03:35;;;;;;;9.02;4.88;;;;;;;10.55;70.54;96415.94;5088393;28;20039;-73
2023/05/05 00:06:03;;;;;;;7.25;4.75;;;;;;;10.50;69.78;96413.34;5089010;28;20512;-73
2023/05/05 00:08:29;;;;;;;10.90;5.88;;;;;;;10.46;69.40;96417.81;5087888;28;20051;-73
2023/05/05 00:10:56;;;;;;;7.32;4.88;;;;;;;10.42;69.58;96412.19;5089523;28;20051;-73
2023/05/05 00:13:24;;;;;;;7.55;5.22;;;;;;;10.43;70.15;96404.81;5087934;28;20044;-73
2023/05/05 00:15:53;;;;;;;9.45;5.05;;;;;;;10.41;70.67;96407.06;5089144;28;20685;-72
2023/05/05 00:18:20;;;;;;;8.93;4.47;;;;;;;10.33;70.35;96418.72;5092950;28;20502;-72
2023/05/05 00:20:47;;;;;;;7.68;4.82;;;;;;;10.31;70.81;96410.06;5093669;28;20051;-72
2023/05/05 00:23:13;;;;;;;7.07;5.10;;;;;;;10.31;71.85;96415.50;5090450;27;20138;-72
2023/05/05 00:25:40;;;;;;;8.20;5.03;;;;;;;10.27;71.53;96403.66;5092192;28;20055;-73
2023/05/05 00:28:06;;;;;;;8.73;5.82;;;;;;;10.26;73.42;96412.94;5093043;28;20116;-73
2023/05/05 00:30:34;;;;;;;8.95;5.75;;;;;;;10.22;72.91;96411.91;5092366;28;20087;-72
2023/05/05 00:33:01;;;;;;;10.63;5.47;;;;;;;10.17;74.01;96410.94;5092384;28;20044;-72
2023/05/05 00:35:27;;;;;;;6.95;4.82;;;;;;;10.07;72.76;96410.41;5092977;28;20437;-71
2023/05/05 00:37:54;;;;;;;9.00;5.15;;;;;;;10.02;72.08;96408.63;5092958;28;20051;-73
2023/05/05 00:40:21;;;;;;;9.90;5.35;;;;;;;10.07;73.41;96415.84;5092557;28;20048;-72
2023/05/05 00:42:49;;;;;;;9.23;5.57;;;;;;;10.09;75.44;96410.91;5091793;28;20051;-72
2023/05/05 00:45:16;;;;;;;6.80;5.00;;;;;;;10.12;74.71;96413.78;5092476;28;20050;-73
2023/05/05 00:47:47;;;;;;;8.60;5.45;;;;;;;10.08;73.66;96410.13;5084907;28;20055;-72
2023/05/05 00:50:22;;;;;;;8.93;5.78;;;;;;;10.05;72.61;96412.66;5092663;28;20051;-73
2023/05/05 00:52:50;;;;;;;7.55;4.80;;;;;;;10.04;72.35;96411.84;5091376;28;20043;-72
2023/05/05 00:55:17;;;;;;;9.40;5.25;;;;;;;10.01;72.50;96412.47;5092376;27;20040;-73
2023/05/05 00:57:44;;;;;;;8.02;4.97;;;;;;;9.97;72.69;96400.63;5083721;28;20040;-72
2023/05/05 01:00:12;;;;;;;7.57;5.13;;;;;;;9.94;72.96;96406.69;5092759;28;20056;-73
2023/05/05 01:02:40;;;;;;;11.90;5.65;;;;;;;9.79;72.59;96402.44;5092183;28;20063;-72
2023/05/05 01:05:09;;;;;;;7.07;4.88;;;;;;;9.77;72.35;96401.16;5092204;28;20380;-73
2023/05/05 01:07:44;;;;;;;7.90;5.50;;;;;;;9.81;74.13;96402.13;5092674;28;20043;-73
2023/05/05 01:10:18;;;;;;;9.63;5.32;;;;;;;9.79;73.26;96401.63;5092583;28;20048;-73
2023/05/05 01:12:53;;;;;;;9.38;5.60;;;;;;;9.74;72.69;96402.56;5090711;28;20055;-73
2023/05/05 01:15:29;;;;;;;7.65;5.18;;;;;;;9.70;73.08;96401.56;5090538;27;20454;-73
2023/05/05 01:18:02;;;;;;;8.02;5.38;;;;;;;9.67;74.04;96403.00;5092244;28;20048;-73
2023/05/05 01:20:35;;;;;;;7.82;5.45;;;;;;;9.64;75.22;96398.19;5092257;28;20044;-73
2023/05/05 01:23:07;;;;;;;10.27;6.13;;;;;;;9.63;75.61;96399.31;5089959;27;20047;-73
2023/05/05 01:26:08;;;;;;;8.45;5.28;;;;;;;9.63;75.97;96399.31;5092371;28;20039;-73
2023/05/05 01:28:57;;;;;;;7.90;5.40;;;;;;;9.54;76.67;96394.91;5091922;28;20071;-73
2023/05/05 01:31:38;;;;;;;10.60;6.30;;;;;;;9.48;75.90;96394.25;5090958;28;20043;-73
2023/05/05 01:34:08;;;;;;;9.82;5.50;;;;;;;9.50;75.46;96397.47;5089934;27;20047;-73
2023/05/05 01:36:38;;;;;;;9.25;5.50;;;;;;;9.44;75.26;96398.69;5093030;28;20040;-73
2023/05/05 01:39:09;;;;;;;8.73;4.93;;;;;;;9.45;75.17;96394.88;5092746;28;20044;-73
2023/05/05 01:41:42;;;;;;;11.80;6.45;;;;;;;9.34;74.94;96404.38;5092512;28;20403;-73
2023/05/05 01:44:10;;;;;;;;;;;;;;;9.20;75.27;96401.72;5091366;27;20067;-73
2023/05/05 01:46:38;;;;;;;8.60;5.38;;;;;;;9.30;74.97;96400.69;5090922;28;19920;-73
2023/05/05 01:49:09;;;;;;;9.07;6.10;;;;;;;9.22;74.96;96402.22;5091718;28;20044;-73
2023/05/05 01:51:37;;;;;;;8.25;5.70;;;;;;;9.22;75.04;96406.84;5092047;28;20044;-73
2023/05/05 01:54:07;;;;;;;8.25;5.57;;;;;;;9.22;74.91;96401.41;5091367;28;20048;-73
2023/05/05 01:56:37;;;;;;;10.43;6.15;;;;;;;9.24;75.27;96404.59;5092623;28;20051;-73
2023/05/05 01:59:05;;;;;;;9.35;5.50;;;;;;;9.26;76.01;96395.06;5092205;28;20048;-73
2023/05/05 02:01:32;;;;;;;9.57;5.72;;;;;;;9.28;77.16;96400.97;5093743;28;20056;-73
2023/05/05 02:04:02;;;;;;;8.98;5.93;;;;;;;9.33;78.06;96397.34;5092813;28;20044;-73
2023/05/05 02:06:31;;;;;;;10.00;5.57;;;;;;;9.32;77.24;96399.25;5094300;28;20043;-73
2023/05/05 02:08:58;;;;;;;8.35;5.57;;;;;;;9.34;77.78;96393.50;5093987;27;20051;-73
2023/05/05 02:11:27;;;;;;;9.18;5.65;;;;;;;9.33;77.67;96397.34;5092682;28;20050;-73
2023/05/05 02:13:55;;;;;;;9.63;5.35;;;;;;;9.27;77.53;96396.66;5089764;27;20071;-72
2023/05/05 02:16:23;;;;;;;9.85;6.15;;;;;;;8.99;77.42;96404.09;5092361;28;20048;-72
2023/05/05 02:18:50;;;;;;;8.90;5.70;;;;;;;9.17;78.17;96401.53;5083434;28;20048;-73
2023/05/05 02:21:18;;;;;;;7.50;5.07;;;;;;;9.14;77.29;96397.53;5091038;28;20044;-73
2023/05/05 02:23:45;;;;;;;8.20;5.18;;;;;;;9.18;78.19;96400.41;5089346;28;20679;-73
2023/05/05 02:26:15;;;;;;;10.57;5.28;;;;;;;9.07;77.07;96406.06;5089995;28;20105;-73
2023/05/05 02:28:47;;;;;;;7.20;4.72;;;;;;;9.11;76.77;96406.28;5090992;28;20044;-73
2023/05/05 02:31:15;;;;;;;13.93;5.47;;;;;;;8.92;77.16;96408.34;5090639;28;20105;-73
2023/05/05 02:33:43;;;;;;;6.43;4.88;;;;;;;9.02;76.35;96400.75;5089840;28;20044;-72
2023/05/05 02:36:14;;;;;;;8.25;4.95;;;;;;;8.98;75.76;96409.81;5089750;28;20125;-73
2023/05/05 02:38:45;;;;;;;7.35;5.07;;;;;;;8.72;75.38;96410.41;5090159;28;20048;-72
2023/05/05 02:41:15;;;;;;;7.18;4.95;;;;;;;8.77;75.91;96396.72;5090309;28;20076;-73
2023/05/05 02:43:44;;;;;;;7.50;4.90;;;;;;;8.80;76.49;96401.53;5089638;28;20040;-73
2023/05/05 02:46:11;;;;;;;9.80;5.22;;;;;;;8.88;76.55;96419.81;5090213;28;20055;-73
2023/05/05 02:48:37;;;;;;;7.45;5.18;;;;;;;8.88;76.05;96408.97;5090576;28;20044;-73
2023/05/05 02:51:04;;;;;;;9.00;5.00;;;;;;;8.93;75.45;96416.19;5090303;28;20040;-73
2023/05/05 02:53:32;;;;;;;9.07;5.50;;;;;;;8.90;75.04;96405.94;5088426;28;20135;-72
2023/05/05 02:56:08;;;;;;;8.23;4.97;;;;;;;8.82;75.75;96409.34;5090691;28;20048;-73
2023/05/05 02:58:41;;;;;;;9.45;5.63;;;;;;;8.62;74.69;96406.00;5090410;28;20071;-72
2023/05/05 03:01:11;;;;;;;;;;;;;;;8.73;75.18;96403.06;5090679;28;20067;-73
2023/05/05 03:03:44;;;;;;;12.38;6.00;;;;;;;8.74;75.91;96399.22;5088699;28;19920;-73
2023/05/05 03:06:14;;;;;;;9.73;5.68;;;;;;;8.76;77.65;96402.44;5089926;28;20044;-73
2023/05/05 03:08:44;;;;;;;7.13;5.05;;;;;;;8.76;76.46;96400.53;5090667;28;20048;-73
2023/05/05 03:11:18;;;;;;;8.48;4.95;;;;;;;8.81;75.45;96399.63;5088037;28;20093;-72
2023/05/05 03:13:50;;;;;;;8.13;5.70;;;;;;;8.84;75.40;96407.16;5088733;28;20063;-73
2023/05/05 03:16:18;;;;;;;7.10;5.03;;;;;;;8.78;75.50;96408.38;5090097;28;20047;-72
2023/05/05 03:18:46;;;;;;;10.70;6.00;;;;;;;8.79;76.10;96404.56;5090093;28;20044;-72
2023/05/05 03:21:13;;;;;;;7.13;4.80;;;;;;;8.77;76.10;96409.47;5088946;28;20040;-73
2023/05/05 03:23:40;;;;;;;8.85;5.63;;;;;;;8.81;77.02;96407.75;5088717;27;20510;-72
2023/05/05 03:26:06;;;;;;;8.60;5.55;;;;;;;8.84;77.02;96407.16;5089853;28;20055;-73
2023/05/05 03:28:34;;;;;;;9.57;5.68;;;;;;;8.86;77.30;96411.16;5090040;28;20487;-73
2023/05/05 03:31:01;;;;;;;9.00;5.50;;;;;;;8.88;76.97;96413.59;5089867;28;20040;-73
2023/05/05 03:33:27;;;;;;;10.68;5.85;;;;;;;8.86;76.61;96410.38;5087751;28;20498;-72
2023/05/05 03:35:53;;;;;;;7.10;4.90;;;;;;;8.84;76.42;96412.59;5089037;28;20048;-73
2023/05/05 03:38:20;;;;;;;6.82;5.38;;;;;;;8.81;76.18;96413.19;5089587;28;20044;-72
2023/05/05 03:40:46;;;;;;;10.40;5.45;;;;;;;8.82;76.33;96412.06;5089642;28;20047;-72
2023/05/05 03:43:13;;;;;;;6.20;4.57;;;;;;;8.84;78.37;96412.59;5088522;28;20052;-72
2023/05/05 03:45:41;;;;;;;11.88;5.43;;;;;;;8.82;78.17;96420.22;5089176;28;20044;-72
2023/05/05 03:48:08;;;;;;;9.68;5.70;;;;;;;8.78;77.42;96422.75;5089159;28;20039;-73
2023/05/05 03:50:35;;;;;;;12.48;5.72;;;;;;;8.78;79.14;96419.25;5090947;28;20051;-72
2023/05/05 03:53:02;;;;;;;8.80;4.90;;;;;;;8.76;79.02;96422.25;5092617;28;20044;-74
2023/05/05 03:55:28;;;;;;;8.35;5.40;;;;;;;8.69;78.89;96421.88;5090635;28;20067;-72
2023/05/05 03:57:55;;;;;;;8.82;5.05;;;;;;;8.38;79.88;96421.69;5089350;28;20044;-72
2023/05/05 04:00:21;;;;;;;9.82;5.07;;;;;;;8.46;79.18;96412.84;5092971;28;21032;-72
2023/05/05 04:02:49;;;;;;;7.30;5.25;;;;;;;8.48;79.09;96416.06;5093021;28;20056;-72
2023/05/05 04:05:17;;;;;;;7.28;5.20;;;;;;;8.56;79.58;96420.78;5090022;28;20557;-73
2023/05/05 04:07:43;;;;;;;9.60;4.97;;;;;;;8.57;79.63;96414.25;5092594;28;20534;-72
2023/05/05 04:10:10;;;;;;;8.43;4.75;;;;;;;8.59;79.82;96428.31;5093827;28;20508;-73
2023/05/05 04:12:37;;;;;;;7.38;4.95;;;;;;;8.69;79.95;96421.06;5093168;28;20119;-73
2023/05/05 04:15:04;;;;;;;7.53;4.50;;;;;;;8.68;80.23;96419.47;5090732;28;20043;-73
2023/05/05 04:17:30;;;;;;;9.55;4.40;;;;;;;8.70;79.47;96417.25;5085497;28;20048;-73
2023/05/05 04:19:58;;;;;;;6.57;4.50;;;;;;;8.72;79.17;96420.44;5089401;28;20051;-73
2023/05/05 04:22:24;;;;;;;5.95;4.68;;;;;;;8.68;79.10;96422.19;5088343;28;20047;-73
2023/05/05 04:24:51;;;;;;;7.63;4.95;;;;;;;8.68;79.49;96424.91;5089384;28;20048;-72
2023/05/05 04:27:17;;;;;;;9.10;4.43;;;;;;;8.70;78.89;96428.09;5088080;28;20040;-73
2023/05/05 04:29:44;;;;;;;9.15;4.55;;;;;;;8.71;78.96;96414.22;5089321;28;20055;-73
2023/05/05 04:32:11;;;;;;;8.57;5.10;;;;;;;8.67;78.84;96423.28;5088831;28;20101;-73
2023/05/05 04:34:37;;;;;;;9.27;4.93;;;;;;;8.57;79.57;96416.16;5089401;28;20043;-72
2023/05/05 04:37:05;;;;;;;12.82;5.72;;;;;;;8.57;79.26;96416.97;5086791;27;20051;-73
2023/05/05 04:39:31;;;;;;;10.75;4.75;;;;;;;8.75;79.35;96420.66;5089276;28;20518;-73
2023/05/05 04:41:58;;;;;;;10.07;5.32;;;;;;;8.88;79.36;96424.47;5089510;28;20040;-72
2023/05/05 04:44:25;;;;;;;7.18;4.85;;;;;;;9.03;78.75;96432.28;5087827;28;20499;-72
2023/05/05 04:46:51;;;;;;;9.38;5.53;;;;;;;9.13;78.08;96425.78;5088011;28;20487;-72
2023/05/05 04:49:18;;;;;;;7.13;5.05;;;;;;;9.27;77.75;96431.19;5088790;28;20511;-72
2023/05/05 04:51:45;;;;;;;10.40;5.82;;;;;;;9.31;77.22;96432.97;5088941;28;20551;-72
2023/05/05 04:54:13;;;;;;;9.57;5.15;;;;;;;9.37;76.49;96428.22;5088897;28;20130;-72
2023/05/05 04:56:40;;;;;;;8.32;5.25;;;;;;;9.34;76.29;96426.09;5088146;27;20048;-72
2023/05/05 04:59:06;;;;;;;8.82;5.05;;;;;;;9.47;76.06;96429.91;5089076;28;20044;-73
2023/05/05 05:01:33;;;;;;;11.80;5.93;;;;;;;9.50;75.65;96440.13;5089357;28;20491;-72
2023/05/05 05:03:59;;;;;;;8.95;4.70;;;;;;;9.54;75.42;96436.50;5092804;28;20059;-73
2023/05/05 05:06:26;;;;;;;8.27;4.63;;;;;;;9.64;75.49;96441.69;5091289;28;20526;-72
2023/05/05 05:08:52;;;;;;;8.63;4.68;;;;;;;9.74;75.60;96437.13;5092550;28;20728;-72
2023/05/05 05:11:20;;;;;;;8.68;5.88;;;;;;;9.77;75.64;96441.94;5092241;28;20491;-73
2023/05/05 05:13:46;;;;;;;7.28;4.88;;;;;;;9.88;75.19;96440.56;5091475;28;20040;-73
2023/05/05 05:16:13;;;;;;;11.82;5.78;;;;;;;9.88;75.11;96435.94;5091199;28;20487;-73
2023/05/05 05:18:39;;;;;;;9.52;5.03;;;;;;;10.06;75.14;96431.38;5092351;28;20044;-73
2023/05/05 05:21:06;;;;;;;6.05;4.57;;;;;;;10.10;75.05;96426.91;5092170;28;20479;-73
2023/05/05 05:23:32;;;;;;;9.35;5.18;;;;;;;10.21;74.55;96438.34;5092188;28;20422;-72
2023/05/05 05:25:59;;;;;;;10.75;4.88;;;;;;;10.26;74.17;96437.44;5090236;28;20040;-72
2023/05/05 05:28:27;;;;;;;7.10;4.63;;;;;;;10.46;73.71;96431.44;5091750;28;20048;-73
2023/05/05 05:30:53;;;;;;;7.50;4.80;;;;;;;10.57;73.47;96427.28;5091974;28;20048;-72
2023/05/05 05:33:20;;;;;;;6.40;4.45;;;;;;;10.75;73.52;96435.50;5091786;28;20047;-71
2023/05/05 05:35:46;;;;;;;10.23;4.93;;;;;;;10.93;73.69;96443.41;5090222;28;20384;-72
2023/05/05 05:38:13;;;;;;;5.60;4.30;;;;;;;11.09;74.29;96441.03;5084796;28;20047;-73
2023/05/05 05:40:39;;;;;;;9.00;5.00;;;;;;;11.22;74.62;96437.38;5091185;28;20036;-73
2023/05/05 05:43:06;;;;;;;7.55;4.68;;;;;;;11.33;74.88;96446.03;5091416;28;20047;-73
2023/05/05 05:45:34;;;;;;;7.97;4.70;;;;;;;11.34;74.19;96441.38;5091259;28;20062;-74
2023/05/05 05:48:00;;;;;;;6.80;4.50;;;;;;;11.54;74.37;96440.72;5091338;28;20040;-73
2023/05/05 05:50:27;;;;;;;7.47;4.80;;;;;;;11.58;72.99;96441.66;5090235;28;20048;-74
2023/05/05 05:52:53;;;;;;;6.32;4.43;;;;;;;11.81;72.97;96444.22;5091471;28;20048;-73
2023/05/05 05:55:20;;;;;;;9.43;4.70;;;;;;;11.72;72.17;96445.03;5090621;28;20486;-74
2023/05/05 05:57:47;;;;;;;7.63;4.80;;;;;;;12.00;73.15;96441.94;5091260;28;20486;-73
2023/05/05 06:00:14;;;;;;;6.78;4.43;;;;;;;12.12;72.07;96449.50;5091389;28;20037;-73
2023/05/05 06:02:42;;;;;;;6.80;4.50;;;;;;;12.22;70.47;96444.47;5090129;27;20051;-73
2023/05/05 06:05:09;;;;;;;6.53;4.35;;;;;;;12.53;70.58;96448.88;5090934;28;20505;-73
2023/05/05 06:07:36;;;;;;;7.05;3.83;;;;;;;12.68;69.41;96451.03;5089576;28;20044;-73
2023/05/05 06:10:02;;;;;;;7.07;4.38;;;;;;;12.86;69.52;96442.75;5091626;28;20040;-73
2023/05/05 06:12:29;;;;;;;7.53;4.05;;;;;;;13.00;70.20;96451.53;5091910;28;20380;-73
2023/05/05 06:14:56;;;;;;;7.78;4.50;;;;;;;12.97;68.81;96439.31;5090316;28;20048;-73
2023/05/05 06:17:22;;;;;;;8.88;4.28;;;;;;;13.11;68.75;96450.00;5091288;28;20059;-73
2023/05/05 06:19:50;;;;;;;7.40;4.55;;;;;;;13.21;68.92;96446.91;5091330;28;20055;-73
2023/05/05 06:22:16;;;;;;;5.85;3.85;;;;;;;13.30;70.32;96458.56;5090868;28;20054;-74
2023/05/05 06:24:43;;;;;;;12.10;4.60;;;;;;;13.26;70.57;96454.91;5090898;28;20040;-74
2023/05/05 06:27:10;;;;;;;7.15;4.82;;;;;;;13.39;70.08;96457.72;5090905;28;20128;-73
2023/05/05 06:29:37;;;;;;;10.57;5.43;;;;;;;13.44;70.34;96458.31;5090715;28;20140;-73
2023/05/05 06:32:06;;;;;;;5.68;4.20;;;;;;;13.57;69.96;96453.69;5091256;28;20048;-73
2023/05/05 06:34:33;;;;;;;7.47;4.43;;;;;;;13.76;69.82;96448.53;5091201;28;20047;-73
2023/05/05 06:37:00;;;;;;;7.22;4.90;;;;;;;13.76;70.60;96462.22;5091075;28;20514;-73
2023/05/05 06:39:27;;;;;;;8.50;4.60;;;;;;;14.03;70.13;96460.03;5090988;28;20479;-73
2023/05/05 06:41:53;;;;;;;6.32;4.88;;;;;;;14.10;70.91;96450.16;5090566;28;20051;-72
2023/05/05 06:44:20;;;;;;;6.75;4.60;;;;;;;14.35;70.93;96445.53;5090280;28;20044;-72
2023/05/05 06:46:46;;;;;;;6.07;4.88;;;;;;;14.57;71.41;96449.03;5090569;28;20044;-72
2023/05/05 06:49:12;;;;;;;11.13;5.00;;;;;;;14.55;71.27;96448.53;5090272;28;20514;-71
2023/05/05 06:51:39;;;;;;;7.32;5.55;;;;;;;14.64;72.11;96456.66;5090681;28;20040;-72
2023/05/05 06:54:07;;;;;;;8.80;5.60;;;;;;;14.65;70.96;96461.78;5090111;28;20043;-72
2023/05/05 06:56:33;;;;;;;9.02;5.55;;;;;;;14.83;72.54;96459.66;5090942;28;20055;-71
2023/05/05 06:59:00;;;;;;;11.50;5.18;;;;;;;14.97;72.27;96453.81;5090953;28;20039;-72
2023/05/05 07:01:26;;;;;;;8.30;4.85;;;;;;;15.03;67.38;96449.69;5090216;28;20085;-71
2023/05/05 07:03:53;;;;;;;7.20;5.15;;;;;;;15.18;66.67;96459.97;5090598;28;20510;-72
2023/05/05 07:06:19;;;;;;;6.63;4.97;;;;;;;15.39;69.06;96460.59;5089983;28;20043;-72
2023/05/05 07:08:46;;;;;;;5.95;5.03;;;;;;;15.47;66.98;96461.63;5090312;28;20430;-72
2023/05/05 07:11:14;;;;;;;6.57;4.68;;;;;;;15.58;67.33;96457.25;5089969;28;20047;-71
2023/05/05 07:13:41;;;;;;;7.53;4.85;;;;;;;15.78;69.94;96450.00;5090119;28;20040;-72
2023/05/05 07:16:07;;;;;;;7.13;4.57;;;;;;;15.96;66.75;96455.19;5089844;28;20072;-72
2023/05/05 07:18:34;;;;;;;8.63;4.97;;;;;;;15.90;64.58;96460.94;5090332;28;20040;-71
2023/05/05 07:21:01;;;;;;;9.50;5.00;;;;;;;15.84;64.85;96465.09;5090120;28;20047;-73
2023/05/05 07:23:27;;;;;;;6.85;5.10;;;;;;;15.95;68.26;96459.88;5089689;28;20101;-72
2023/05/05 07:25:54;;;;;;;10.23;5.15;;;;;;;16.11;67.12;96473.66;5089820;28;20521;-72
2023/05/05 07:28:22;;;;;;;8.40;4.85;;;;;;;16.05;66.19;96458.59;5089806;28;20070;-72
2023/05/05 07:30:49;;;;;;;7.93;5.28;;;;;;;16.08;67.53;96463.41;5089893;28;20044;-72
2023/05/05 07:33:17;;;;;;;9.43;5.82;;;;;;;15.91;67.57;96465.28;5089607;28;20117;-71
2023/05/05 07:35:43;;;;;;;10.05;5.97;;;;;;;16.08;66.65;96463.41;5089946;28;20044;-72
2023/05/05 07:38:10;;;;;;;9.02;5.85;;;;;;;16.37;66.55;96465.75;5089592;28;20046;-72
2023/05/05 07:40:36;;;;;;;6.32;5.18;;;;;;;16.52;63.62;96471.63;5089973;28;20403;-72
2023/05/05 07:43:03;;;;;;;8.40;5.47;;;;;;;16.65;64.16;96465.69;5089374;28;20502;-72
2023/05/05 07:45:31;;;;;;;9.52;5.75;;;;;;;16.70;63.97;96462.69;5089885;28;20040;-72
2023/05/05 07:47:58;;;;;;;7.65;5.97;;;;;;;16.95;62.10;96457.78;5089877;28;20048;-72
2023/05/05 07:50:25;;;;;;;8.60;6.55;;;;;;;17.41;60.64;96463.56;5089762;28;20044;-72
2023/05/05 07:52:52;;;;;;;8.25;6.18;;;;;;;18.00;57.65;96456.97;5089799;28;20055;-72
2023/05/05 07:55:19;;;;;;;10.00;5.82;;;;;;;19.47;54.43;96457.53;5089868;28;20407;-72
2023/05/05 07:57:45;;;;;;;8.82;5.95;;;;;;;19.98;51.82;96468.06;5090150;28;20044;-72
2023/05/05 08:00:13;;;;;;;9.38;5.70;;;;;;;19.64;52.49;96452.66;5089480;28;20040;-73
2023/05/05 08:02:41;;;;;;;9.57;6.20;;;;;;;19.92;52.58;96458.53;5089665;28;20410;-72
2023/05/05 08:05:08;;;;;;;7.97;5.57;;;;;;;20.74;50.88;96464.19;5081219;28;20044;-73
2023/05/05 08:07:35;;;;;;;7.55;5.75;;;;;;;21.72;47.54;96461.75;5089699;28;20044;-72
2023/05/05 08:10:01;;;;;;;8.57;6.15;;;;;;;22.38;46.12;96465.22;5089522;28;20072;-74
2023/05/05 08:12:28;;;;;;;12.23;5.85;;;;;;;22.32;47.14;96466.78;5089649;28;20044;-74
2023/05/05 08:14:54;;;;;;;9.60;5.15;;;;;;;22.17;47.78;96462.38;5089830;28;20044;-73
2023/05/05 08:17:21;;;;;;;7.70;6.05;;;;;;;21.86;46.97;96461.81;5089503;28;20051;-73
2023/05/05 08:19:51;;;;;;;7.72;6.07;;;;;;;21.74;47.94;96462.94;5089184;28;20098;-73
2023/05/05 08:22:18;;;;;;;10.00;6.32;;;;;;;22.08;48.54;96457.97;5089091;28;20051;-73
2023/05/05 08:24:45;;;;;;;8.45;6.93;;;;;;;22.98;44.03;96464.56;5089628;28;20040;-73
2023/05/05 08:27:12;;;;;;;9.95;6.25;;;;;;;23.61;43.61;96451.78;5089012;28;20036;-73
2023/05/05 08:29:39;;;;;;;9.80;6.22;;;;;;;23.86;42.40;96448.19;5089551;28;20047;-74
2023/05/05 08:32:05;;;;;;;7.30;6.45;;;;;;;23.78;43.70;96449.38;5088938;28;20043;-73
2023/05/05 08:34:32;;;;;;;12.63;7.18;;;;;;;23.51;42.36;96447.03;5089508;28;20047;-73
2023/05/05 08:37:00;;;;;;;8.63;6.10;;;;;;;23.84;44.27;96443.00;5090364;28;20066;-73
2023/05/05 08:39:26;;;;;;;9.02;6.38;;;;;;;23.35;44.58;96443.91;5093084;28;20044;-74
2023/05/05 08:41:53;;;;;;;12.55;6.65;;;;;;;23.13;45.34;96443.13;5095289;28;20043;-72
2023/05/05 08:44:20;;;;;;;12.55;6.90;;;;;;;23.47;44.79;96435.13;5094363;28;20040;-73
2023/05/05 08:46:47;;;;;;;9.23;7.10;;;;;;;23.03;44.20;96439.16;5094813;28;20036;-73
2023/05/05 08:49:14;;;;;;;9.55;6.60;;;;;;;22.70;43.67;96445.06;5094510;28;20094;-73
2023/05/05 08:51:43;;;;;;;10.88;6.85;;;;;;;22.11;46.94;96440.56;5094512;28;20039;-73
2023/05/05 08:54:15;;;;;;;10.43;6.97;;;;;;;21.91;51.55;96442.03;5093803;28;20055;-73
2023/05/05 08:56:42;;;;;;;9.52;5.93;;;;;;;22.19;46.99;96451.69;5094380;28;20044;-73
2023/05/05 08:59:12;;;;;;;11.25;6.13;;;;;;;22.21;54.38;96443.78;5092990;28;20040;-73
2023/05/05 09:01:41;;;;;;;8.15;6.60;;;;;;;22.23;50.52;96446.94;5093547;28;20040;-74
2023/05/05 09:04:08;;;;;;;9.23;6.80;;;;;;;22.10;49.00;96446.47;5093159;28;20050;-74
2023/05/05 09:06:36;;;;;;;10.15;6.55;;;;;;;22.31;47.54;96443.00;5094606;28;20058;-74
2023/05/05 09:09:02;;;;;;;9.18;6.75;;;;;;;21.47;48.98;96445.78;5094082;28;20044;-74
2023/05/05 09:11:32;;;;;;;8.65;6.40;;;;;;;21.80;51.94;96446.75;5092787;28;20494;-73
2023/05/05 09:13:58;;;;;;;9.95;7.35;;;;;;;21.78;46.11;96443.56;5092476;28;20070;-73
2023/05/05 09:16:25;;;;;;;9.52;7.13;;;;;;;21.83;47.04;96445.97;5086674;28;20040;-73
2023/05/05 09:19:01;;;;;;;11.02;7.28;;;;;;;21.59;52.76;96448.22;5091045;28;20044;-73
2023/05/05 09:21:28;;;;;;;11.88;7.55;;;;;;;21.67;54.96;96443.53;5092160;28;20686;-73
2023/05/05 09:24:04;;;;;;;13.40;8.27;;;;;;;21.27;49.75;96439.69;5092144;28;20051;-71
2023/05/05 09:26:33;;;;;;;13.43;8.88;;;;;;;21.39;50.19;96444.13;5091971;28;20047;-72
2023/05/05 09:29:01;;;;;;;12.75;7.93;;;;;;;21.59;50.01;96442.69;5092553;28;20086;-73
2023/05/05 09:31:27;;;;;;;12.13;8.05;;;;;;;21.60;48.90;96438.72;5092132;28;20032;-72
2023/05/05 09:33:55;;;;;;;12.50;8.35;;;;;;;21.78;48.11;96438.81;5092061;28;20038;-72
2023/05/05 09:36:41;;;;;;;11.23;8.02;;;;;;;21.68;49.50;96441.53;5091781;28;20052;-72
2023/05/05 09:39:07;;;;;;;9.75;7.80;;;;;;;21.97;51.31;96434.94;5091317;28;20091;-72
2023/05/05 09:41:39;;;;;;;11.68;7.45;;;;;;;22.11;50.01;96440.56;5091976;28;20044;-71
2023/05/05 09:44:06;;;;;;;13.02;8.63;;;;;;;22.03;48.17;96438.94;5091397;28;20067;-74
2023/05/05 09:46:33;;;;;;;13.77;8.25;;;;;;;22.32;50.24;96434.28;5091989;28;20093;-72
2023/05/05 09:49:12;;;;;;;11.68;8.65;;;;;;;22.51;49.42;96430.38;5091837;28;20063;-73
2023/05/05 09:51:39;;;;;;;10.13;7.85;;;;;;;22.34;47.14;96431.94;5091580;28;20036;-73
2023/05/05 09:54:06;;;;;;;8.60;7.68;;;;;;;22.31;48.56;96427.16;5091166;28;20101;-72
2023/05/05 09:56:40;;;;;;;8.52;6.72;;;;;;;22.28;51.26;96422.38;5091970;28;20060;-72
2023/05/05 09:59:10;;;;;;;14.27;7.03;;;;;;;22.02;50.27;96431.78;5091224;28;20050;-72
2023/05/05 10:01:38;;;;;;;10.38;7.53;;;;;;;22.43;53.05;96428.75;5091428;28;20048;-72
2023/05/05 10:04:05;;;;;;;9.70;8.35;;;;;;;22.20;49.92;96422.78;5091157;28;20529;-72
2023/05/05 10:06:42;;;;;;;13.18;8.27;;;;;;;21.86;48.97;96420.22;5091735;28;20063;-74
2023/05/05 10:09:09;;;;;;;19.15;8.77;;;;;;;22.01;49.04;96424.66;5091152;28;20048;-72
2023/05/05 10:11:36;;;;;;;11.88;8.02;;;;;;;22.22;52.66;96423.16;5091450;28;20129;-73
2023/05/05 10:14:07;;;;;;;11.05;8.32;;;;;;;22.16;49.26;96419.19;5091097;28;20627;-72
2023/05/05 10:16:35;;;;;;;18.85;9.40;;;;;;;22.32;51.85;96430.72;5083991;28;20039;-72
2023/05/05 10:19:03;;;;;;;10.25;7.72;;;;;;;22.40;50.80;96415.69;5090500;28;20455;-72
2023/05/05 10:21:34;;;;;;;13.02;8.10;;;;;;;22.39;48.04;96416.84;5091375;28;20055;-72
2023/05/05 10:24:06;;;;;;;11.27;6.93;;;;;;;22.65;50.30;96416.50;5091140;28;20419;-72
2023/05/05 10:26:38;;;;;;;11.38;7.30;;;;;;;22.37;48.36;96413.69;5091159;28;20570;-74
2023/05/05 10:29:12;;;;;;;11.23;6.90;;;;;;;22.57;49.32;96417.69;5090913;28;20048;-72
2023/05/05 10:31:45;;;;;;;9.13;7.47;;;;;;;22.72;51.55;96412.16;5091000;28;20040;-72
2023/05/05 10:34:15;;;;;;;;;;;;;;;22.65;49.74;96419.25;5091199;28;20074;-72
2023/05/05 10:36:42;;;;;;;10.32;7.70;;;;;;;22.26;46.47;96418.44;5091177;28;20287;-72
2023/05/05 10:39:09;;;;;;;11.95;8.40;;;;;;;21.98;46.49;96408.00;5090039;28;20052;-74
2023/05/05 10:41:37;;;;;;;11.65;7.82;;;;;;;22.24;47.12;96404.97;5090783;28;20546;-74
2023/05/05 10:44:06;;;;;;;11.95;8.65;;;;;;;21.89;48.06;96405.59;5091004;28;20040;-72
2023/05/05 10:46:33;;;;;;;9.30;8.27;;;;;;;21.81;49.25;96404.75;5090673;28;20043;-73
2023/05/05 10:49:08;;;;;;;10.02;7.82;;;;;;;21.77;48.69;96403.97;5090838;28;20040;-74
2023/05/05 10:51:44;;;;;;;9.23;7.97;;;;;;;21.93;50.44;96403.66;5090653;28;20398;-74
2023/05/05 10:54:17;;;;;;;11.88;8.75;;;;;;;21.91;48.15;96406.00;5089778;28;20044;-74
2023/05/05 10:56:43;;;;;;;11.30;8.45;;;;;;;22.08;52.18;96394.19;5091008;28;20044;-74
2023/05/05 10:59:42;;;;;;;11.07;8.00;;;;;;;22.51;50.88;96397.06;5090083;28;20048;-72
2023/05/05 11:02:19;;;;;;;11.13;7.72;;;;;;;22.80;49.06;96392.31;5090083;28;20051;-72
2023/05/05 11:05:04;;;;;;;11.50;9.20;;;;;;;22.61;48.98;96385.19;5090736;28;20616;-72
2023/05/05 11:07:33;;;;;;;12.35;9.60;;;;;;;22.63;48.87;96385.56;5083778;28;20036;-72
2023/05/05 11:10:01;;;;;;;12.05;9.98;;;;;;;22.31;48.72;96387.53;5090511;28;20051;-72
2023/05/05 11:12:27;;;;;;;13.13;10.18;;;;;;;22.33;48.98;96385.94;5091019;28;20052;-72
2023/05/05 11:15:32;;;;;;;11.85;9.00;;;;;;;22.66;49.93;96381.22;5090552;28;20058;-72
2023/05/05 11:18:01;;;;;;;9.35;7.18;;;;;;;22.88;48.07;96359.81;5087756;28;20040;-72
2023/05/05 11:21:07;;;;;;;10.65;7.18;;;;;;;22.91;48.45;96364.56;5090506;28;20071;-72
2023/05/05 11:23:34;;;;;;;8.48;5.80;;;;;;;22.88;46.60;96357.06;5090544;28;20119;-72
2023/05/05 11:26:01;;;;;;;8.70;5.85;;;;;;;23.16;47.08;96354.22;5091533;28;20040;-72
2023/05/05 11:28:29;;;;;;;14.65;8.10;;;;;;;22.93;47.13;96351.09;5092685;28;20044;-72
2023/05/05 11:31:16;;;;;;;9.32;7.82;;;;;;;23.11;50.52;96351.84;5092401;28;20048;-74
2023/05/05 11:33:43;;;;;;;9.32;6.90;;;;;;;23.17;48.49;96343.91;5091785;28;20102;-74
2023/05/05 11:36:11;;;;;;;5.10;4.53;;;;;;;23.47;45.83;96343.41;5092013;28;20522;-73
2023/05/05 11:38:48;;;;;;;9.35;5.50;;;;;;;23.64;45.06;96339.81;5091266;28;20514;-73
2023/05/05 11:41:26;;;;;;;12.35;6.88;;;;;;;23.80;48.23;96344.88;5091039;28;20048;-73